Time;durP1;ratioP1;P1;durP2;ratioP2;P2;SDS_P1;SDS_P2;PMS_P1;PMS_P2;Temp;Humidity;BMP_temperature;BMP_pressure;BME280_temperature;BME280_humidity;BME280_pressure;Samples;Min_cycle;Max_cycle;Signal;HPM_P1;HPM_P2
2022/01/13 00:00:12;;;;;;;32.57;22.00;;;-0.70;99.90;;;;;;4998315;28;20924;-68
2022/01/13 00:02:38;;;;;;;29.40;21.60;;;-0.70;99.90;;;;;;5002438;28;20207;-68
2022/01/13 00:05:04;;;;;;;32.10;23.00;;;-0.60;99.90;;;;;;4997693;28;20815;-66
2022/01/13 00:07:30;;;;;;;33.80;21.87;;;-0.50;99.90;;;;;;5006126;28;20260;-66
2022/01/13 00:09:56;;;;;;;32.47;25.40;;;-0.50;99.90;;;;;;5002074;28;20443;-68
2022/01/13 00:12:25;;;;;;;32.33;22.77;;;-0.40;99.90;;;;;;5006884;28;20195;-68
2022/01/13 00:15:09;;;;;;;30.03;20.47;;;-0.40;99.90;;;;;;5007206;28;20163;-66
2022/01/13 00:17:56;;;;;;;26.00;18.83;;;-0.50;99.90;;;;;;5000436;28;20928;-66
2022/01/13 00:20:33;;;;;;;31.10;20.63;;;-0.60;99.90;;;;;;5006009;28;20427;-68
2022/01/13 00:25:37;;;;;;;25.50;20.90;;;-0.30;99.90;;;;;;4994163;28;20517;-66
2022/01/13 00:28:12;;;;;;;28.53;20.10;;;-0.30;99.90;;;;;;5004865;28;20464;-66
2022/01/13 00:30:37;;;;;;;30.33;22.10;;;-0.20;99.90;;;;;;5002520;28;20425;-66
2022/01/13 00:33:03;;;;;;;28.00;21.23;;;-0.20;99.90;;;;;;5003424;28;20465;-66
2022/01/13 00:35:29;;;;;;;28.63;22.20;;;-0.20;99.90;;;;;;5006359;28;20629;-66
2022/01/13 00:37:54;;;;;;;34.40;21.90;;;-0.20;99.90;;;;;;5005592;28;20438;-66
2022/01/13 00:40:20;;;;;;;33.57;22.83;;;-0.30;99.90;;;;;;5009561;28;20190;-66
2022/01/13 00:42:45;;;;;;;32.60;21.17;;;-0.30;99.90;;;;;;5011798;28;20738;-68
2022/01/13 00:45:14;;;;;;;25.80;20.03;;;-0.30;99.90;;;;;;5001107;28;20588;-67
2022/01/13 00:47:41;;;;;;;29.80;21.23;;;-0.30;99.90;;;;;;4998308;28;20198;-67
2022/01/13 00:50:07;;;;;;;28.33;21.30;;;-0.30;99.90;;;;;;4998740;28;20438;-66
2022/01/13 00:52:33;;;;;;;28.57;20.97;;;-0.40;99.90;;;;;;5005621;28;21166;-67
2022/01/13 00:55:03;;;;;;;31.97;24.87;;;-0.40;99.90;;;;;;4998533;28;20443;-66
2022/01/13 00:57:31;;;;;;;31.63;21.53;;;-0.40;99.90;;;;;;5007029;28;20185;-67
2022/01/13 00:59:57;;;;;;;27.17;21.90;;;-0.40;99.90;;;;;;4993371;28;20435;-67
2022/01/13 01:02:22;;;;;;;30.23;24.20;;;-0.30;99.90;;;;;;5008503;28;20512;-66
2022/01/13 01:04:48;;;;;;;39.03;23.83;;;-0.20;99.90;;;;;;5007007;28;20186;-67
2022/01/13 01:07:14;;;;;;;35.70;23.00;;;-0.20;99.90;;;;;;4996137;28;20183;-66
2022/01/13 01:09:47;;;;;;;29.10;22.10;;;-0.10;99.90;;;;;;4995556;28;20239;-66
2022/01/13 01:12:13;;;;;;;32.13;21.50;;;-0.20;99.90;;;;;;5000729;28;20229;-67
2022/01/13 01:14:45;;;;;;;31.60;23.53;;;-0.40;99.90;;;;;;5006208;28;20964;-66
2022/01/13 01:17:11;;;;;;;32.57;22.50;;;-0.30;99.90;;;;;;4997557;28;20254;-66
2022/01/13 01:19:37;;;;;;;34.83;23.07;;;-0.30;99.90;;;;;;4992694;28;20461;-66
2022/01/13 01:22:32;;;;;;;37.40;25.70;;;-0.10;99.90;;;;;;4992816;28;20195;-66
2022/01/13 01:26:03;;;;;;;32.27;21.27;;;-0.10;99.90;;;;;;4993498;28;20434;-67
2022/01/13 01:27:55;;;;;;;34.90;23.07;;;-0.10;99.90;;;;;;5000219;28;20445;-67
2022/01/13 01:30:39;;;;;;;32.17;23.67;;;0.10;99.90;;;;;;4999246;28;20430;-66
2022/01/13 01:33:07;;;;;;;29.27;23.47;;;0.20;99.90;;;;;;5007375;28;20467;-68
2022/01/13 01:35:33;;;;;;;30.47;22.33;;;0.30;99.90;;;;;;5011752;28;20512;-68
2022/01/13 01:37:58;;;;;;;28.57;22.03;;;0.40;99.90;;;;;;5006642;28;20501;-68
2022/01/13 01:40:24;;;;;;;28.73;21.43;;;0.40;99.90;;;;;;5005170;28;20180;-68
2022/01/13 01:42:50;;;;;;;32.77;24.70;;;0.40;99.90;;;;;;5007845;28;20573;-68
2022/01/13 01:45:18;;;;;;;30.60;23.30;;;0.40;99.90;;;;;;5004112;28;20446;-67
2022/01/13 01:47:44;;;;;;;27.53;22.47;;;0.40;99.90;;;;;;5007753;28;20441;-68
2022/01/13 01:50:18;;;;;;;29.40;23.90;;;0.40;99.90;;;;;;4999016;28;20454;-68
2022/01/13 01:52:46;;;;;;;32.13;22.97;;;0.50;99.90;;;;;;4997242;28;20504;-68
2022/01/13 01:55:12;;;;;;;31.47;24.17;;;0.50;99.90;;;;;;4996811;28;20522;-68
2022/01/13 01:57:37;;;;;;;30.07;24.20;;;0.30;99.90;;;;;;4997201;28;20858;-68
2022/01/13 02:00:07;;;;;;;34.60;24.40;;;0.40;99.90;;;;;;5010733;28;20461;-68
2022/01/13 02:02:33;;;;;;;38.57;24.10;;;0.40;99.90;;;;;;5001339;28;20226;-68
2022/01/13 02:04:58;;;;;;;32.50;23.43;;;0.30;99.90;;;;;;5006096;28;20482;-66
2022/01/13 02:07:24;;;;;;;33.20;23.60;;;0.10;99.90;;;;;;5012569;28;20175;-68
2022/01/13 02:09:52;;;;;;;35.13;25.10;;;-0.10;99.90;;;;;;5012033;28;20175;-68
2022/01/13 02:12:32;;;;;;;34.20;23.83;;;-0.20;99.90;;;;;;4996930;28;20187;-68
2022/01/13 02:15:05;;;;;;;37.03;23.70;;;-0.20;99.90;;;;;;5004997;28;20434;-66
2022/01/13 02:17:34;;;;;;;34.73;24.03;;;-0.20;99.90;;;;;;5001880;28;20521;-68
2022/01/13 02:20:03;;;;;;;35.00;24.57;;;-0.20;99.90;;;;;;5002751;28;20798;-68
2022/01/13 02:22:29;;;;;;;37.50;26.17;;;-0.30;99.90;;;;;;5002204;28;21025;-68
2022/01/13 02:24:54;;;;;;;33.00;24.30;;;-0.30;99.90;;;;;;5002462;28;20451;-68
2022/01/13 02:27:20;;;;;;;34.77;25.07;;;-0.40;99.90;;;;;;5010072;28;20261;-68
2022/01/13 02:29:46;;;;;;;36.30;25.10;;;-0.40;99.90;;;;;;5008948;28;20176;-68
2022/01/13 02:32:12;;;;;;;30.70;23.07;;;-0.40;99.90;;;;;;4995237;28;20462;-68
2022/01/13 02:34:37;;;;;;;35.83;24.17;;;-0.30;99.90;;;;;;5009777;28;20285;-68
2022/01/13 02:37:04;;;;;;;30.67;23.40;;;-0.20;99.90;;;;;;4995992;28;20191;-68
2022/01/13 02:39:29;;;;;;;35.00;24.60;;;-0.10;99.90;;;;;;5008401;28;20175;-68
2022/01/13 02:41:57;;;;;;;37.77;23.73;;;-0.20;99.90;;;;;;5004722;28;20501;-68
2022/01/13 02:44:24;;;;;;;33.83;22.73;;;-0.30;99.90;;;;;;5001276;28;20182;-68
2022/01/13 02:49:19;;;;;;;40.73;24.70;;;-0.40;99.90;;;;;;5004752;28;20955;-68
2022/01/13 02:51:47;;;;;;;31.00;23.03;;;-0.50;99.90;;;;;;5007100;28;20454;-68
2022/01/13 02:54:13;;;;;;;34.80;26.07;;;-0.50;99.90;;;;;;4995945;28;20459;-68
2022/01/13 02:56:39;;;;;;;32.80;22.30;;;-0.60;99.90;;;;;;5003935;28;20529;-68
2022/01/13 02:59:06;;;;;;;34.40;22.20;;;-0.60;99.90;;;;;;5008694;28;20180;-68
2022/01/13 03:01:32;;;;;;;35.83;23.90;;;-0.60;99.90;;;;;;5008490;28;21003;-68
2022/01/13 03:04:01;;;;;;;31.50;23.43;;;-0.50;99.90;;;;;;5010518;28;20437;-68
2022/01/13 03:06:33;;;;;;;33.10;23.07;;;-0.40;99.90;;;;;;4995400;28;20446;-68
2022/01/13 03:08:59;;;;;;;36.23;23.50;;;-0.20;99.90;;;;;;4995377;28;20434;-68
2022/01/13 03:11:31;;;;;;;33.60;25.00;;;-0.10;99.90;;;;;;5001565;28;20967;-68
2022/01/13 03:13:57;;;;;;;33.97;24.37;;;0.10;99.90;;;;;;4996438;28;20462;-68
2022/01/13 03:16:23;;;;;;;34.67;24.20;;;0.20;99.90;;;;;;5006190;28;20457;-68
2022/01/13 03:18:48;;;;;;;31.23;23.47;;;0.30;99.90;;;;;;5009532;28;20179;-68
2022/01/13 03:21:14;;;;;;;33.50;23.93;;;0.40;99.90;;;;;;5003562;28;20199;-68
2022/01/13 03:23:39;;;;;;;31.27;21.83;;;0.40;99.90;;;;;;5000900;28;20412;-68
2022/01/13 03:26:05;;;;;;;32.17;23.37;;;0.50;99.90;;;;;;5000376;28;20637;-68
2022/01/13 03:28:31;;;;;;;35.23;24.10;;;0.60;99.90;;;;;;5006652;28;20187;-68
2022/01/13 03:31:00;;;;;;;36.27;24.30;;;0.60;99.90;;;;;;4999692;28;20569;-69
2022/01/13 03:33:26;;;;;;;33.50;24.40;;;0.60;99.90;;;;;;4998187;28;20940;-68
2022/01/13 03:35:52;;;;;;;32.50;23.67;;;0.50;99.90;;;;;;4995314;28;20924;-68
2022/01/13 03:38:18;;;;;;;29.70;21.47;;;0.50;99.90;;;;;;5011878;28;20428;-68
2022/01/13 03:40:44;;;;;;;32.90;22.47;;;0.50;99.90;;;;;;5004140;28;20518;-68
2022/01/13 03:43:11;;;;;;;31.13;22.20;;;0.60;99.90;;;;;;5003711;28;20445;-68
2022/01/13 03:45:37;;;;;;;30.80;22.90;;;0.50;99.90;;;;;;5005033;28;20219;-68
2022/01/13 03:48:06;;;;;;;33.77;24.50;;;0.60;99.90;;;;;;4995195;28;20817;-68
2022/01/13 03:50:31;;;;;;;31.20;23.20;;;0.70;99.90;;;;;;5003891;28;20435;-68
2022/01/13 03:52:57;;;;;;;37.40;25.00;;;0.80;99.90;;;;;;5000257;28;21065;-68
2022/01/13 03:55:40;;;;;;;32.00;22.53;;;0.80;99.90;;;;;;5009367;28;20175;-68
2022/01/13 03:58:36;;;;;;;26.20;20.87;;;0.80;99.90;;;;;;5005192;28;20195;-68
2022/01/13 04:01:35;;;;;;;31.00;21.43;;;0.90;99.90;;;;;;4994272;28;20429;-67
2022/01/13 04:04:01;;;;;;;27.33;21.23;;;0.90;99.90;;;;;;5004296;28;20441;-67
2022/01/13 04:06:39;;;;;;;29.83;23.20;;;0.90;99.90;;;;;;4997946;28;20439;-67
2022/01/13 04:09:19;;;;;;;32.20;22.80;;;0.70;99.90;;;;;;4998620;28;20175;-67
2022/01/13 04:11:45;;;;;;;29.93;21.30;;;0.70;99.90;;;;;;5009595;28;20883;-67
2022/01/13 04:14:10;;;;;;;30.00;22.37;;;0.70;99.90;;;;;;5008606;28;20540;-68
2022/01/13 04:16:37;;;;;;;29.83;22.93;;;0.80;99.90;;;;;;5000966;28;20308;-67
2022/01/13 04:19:05;;;;;;;31.17;21.97;;;0.90;99.90;;;;;;5002461;28;20203;-67
2022/01/13 04:21:35;;;;;;;33.07;22.20;;;1.00;99.90;;;;;;5005784;28;20486;-67
2022/01/13 04:24:03;;;;;;;28.50;20.57;;;1.00;99.90;;;;;;5001500;28;20794;-66
2022/01/13 04:26:30;;;;;;;31.40;21.63;;;1.10;99.90;;;;;;5003290;28;20807;-67
2022/01/13 04:31:50;;;;;;;28.40;21.70;;;1.00;99.90;;;;;;4994312;28;20529;-67
2022/01/13 04:34:17;;;;;;;32.73;22.90;;;1.00;99.90;;;;;;4993983;28;20463;-67
2022/01/13 04:36:44;;;;;;;29.77;21.87;;;0.80;99.90;;;;;;5012328;28;20195;-67
2022/01/13 04:39:12;;;;;;;30.67;22.27;;;0.90;99.90;;;;;;4993882;28;21006;-67
2022/01/13 04:41:40;;;;;;;32.53;24.23;;;0.90;99.90;;;;;;4997063;28;20451;-68
2022/01/13 04:44:17;;;;;;;30.37;22.17;;;1.00;99.90;;;;;;5004950;28;20485;-67
2022/01/13 04:46:44;;;;;;;27.53;20.17;;;0.90;99.90;;;;;;4998113;28;20512;-67
2022/01/13 04:49:10;;;;;;;28.97;20.87;;;1.10;99.90;;;;;;5002803;28;20477;-67
2022/01/13 04:51:37;;;;;;;30.83;21.60;;;0.90;99.90;;;;;;4993747;28;20466;-67
2022/01/13 04:54:04;;;;;;;28.57;23.37;;;0.90;99.90;;;;;;4992916;28;20460;-67
2022/01/13 04:59:08;;;;;;;29.60;22.20;;;0.80;99.90;;;;;;5010668;28;20429;-67
2022/01/13 05:01:35;;;;;;;32.67;21.80;;;0.80;99.90;;;;;;5001173;28;20962;-67
2022/01/13 05:04:01;;;;;;;34.87;24.87;;;0.90;99.90;;;;;;5002285;28;20553;-67
2022/01/13 05:06:27;;;;;;;33.43;24.50;;;0.80;99.90;;;;;;4996429;28;21095;-67
2022/01/13 05:08:53;;;;;;;35.47;24.23;;;0.60;99.90;;;;;;5004405;28;20943;-67
2022/01/13 05:11:19;;;;;;;31.37;24.73;;;0.50;99.90;;;;;;5005444;28;20489;-67
2022/01/13 05:13:45;;;;;;;31.80;22.13;;;0.40;99.90;;;;;;4993940;28;20280;-66
2022/01/13 05:16:20;;;;;;;36.00;25.27;;;0.40;99.90;;;;;;4997079;28;20525;-67
2022/01/13 05:18:57;;;;;;;31.10;23.40;;;0.30;99.90;;;;;;4993219;28;20434;-67
2022/01/13 05:21:26;;;;;;;35.00;23.70;;;0.40;99.90;;;;;;5003647;28;20483;-66
2022/01/13 05:23:53;;;;;;;29.97;21.03;;;0.50;99.90;;;;;;5000421;28;20944;-67
2022/01/13 05:26:20;;;;;;;30.40;21.53;;;0.60;99.90;;;;;;4996676;28;20434;-67
2022/01/13 05:28:46;;;;;;;27.87;22.20;;;0.60;99.90;;;;;;5003675;28;20957;-67
2022/01/13 05:31:12;;;;;;;31.90;23.70;;;0.60;99.90;;;;;;5002604;28;20536;-67
2022/01/13 05:33:38;;;;;;;35.37;25.60;;;0.60;99.90;;;;;;4998986;28;20214;-67
2022/01/13 05:36:04;;;;;;;32.97;24.23;;;0.60;99.90;;;;;;4993081;28;20212;-67
2022/01/13 05:38:29;;;;;;;35.37;25.90;;;0.50;99.90;;;;;;4998970;28;20724;-67
2022/01/13 05:40:56;;;;;;;40.03;27.63;;;0.40;99.90;;;;;;4997909;28;20435;-66
2022/01/13 05:43:22;;;;;;;37.33;26.50;;;0.30;99.90;;;;;;5006918;28;20677;-67
2022/01/13 05:45:47;;;;;;;34.93;23.30;;;0.20;99.90;;;;;;5005877;28;20480;-67
2022/01/13 05:48:13;;;;;;;30.83;23.23;;;0.10;99.90;;;;;;4999401;28;20191;-67
2022/01/13 05:50:38;;;;;;;32.33;24.63;;;0.20;99.90;;;;;;4993639;28;20204;-67
2022/01/13 05:53:05;;;;;;;33.03;22.53;;;0.30;99.90;;;;;;4991931;28;20207;-67
2022/01/13 05:55:31;;;;;;;34.40;22.50;;;0.40;99.90;;;;;;4999224;28;20251;-67
2022/01/13 05:57:57;;;;;;;33.67;24.40;;;0.50;99.90;;;;;;5001355;28;20434;-67
2022/01/13 06:00:24;;;;;;;32.00;22.77;;;0.60;99.90;;;;;;4997566;28;20489;-66
2022/01/13 06:02:50;;;;;;;34.97;25.40;;;0.60;99.90;;;;;;5001370;28;20756;-67
2022/01/13 06:05:16;;;;;;;30.67;22.63;;;0.70;99.90;;;;;;5001327;28;20441;-67
2022/01/13 06:07:42;;;;;;;44.87;27.40;;;0.60;99.90;;;;;;5009915;28;20521;-67
2022/01/13 06:10:10;;;;;;;32.03;24.03;;;0.50;99.90;;;;;;5005421;28;20566;-67
2022/01/13 06:12:39;;;;;;;31.73;24.53;;;0.50;99.90;;;;;;4996554;28;20203;-66
2022/01/13 06:15:10;;;;;;;36.03;23.00;;;0.40;99.90;;;;;;4997913;28;20460;-66
2022/01/13 06:17:37;;;;;;;33.93;23.27;;;0.50;99.90;;;;;;5000280;28;20441;-67
2022/01/13 06:20:04;;;;;;;48.53;24.67;;;0.60;99.90;;;;;;5008014;28;21014;-67
2022/01/13 06:22:30;;;;;;;35.23;23.43;;;0.70;99.90;;;;;;5012087;28;20549;-67
2022/01/13 06:24:55;;;;;;;30.50;23.07;;;0.80;99.90;;;;;;5005355;28;20910;-67
2022/01/13 06:27:22;;;;;;;29.40;23.47;;;0.80;99.90;;;;;;5005645;28;20175;-67
2022/01/13 06:29:49;;;;;;;27.97;23.50;;;0.80;99.90;;;;;;5000840;28;20593;-67
2022/01/13 06:32:15;;;;;;;31.97;23.93;;;0.80;99.90;;;;;;4997351;28;20488;-67
2022/01/13 06:34:40;;;;;;;30.37;23.40;;;0.70;99.90;;;;;;5000934;28;20465;-67
2022/01/13 06:37:06;;;;;;;36.13;24.83;;;0.50;99.90;;;;;;5013582;28;20175;-67
2022/01/13 06:39:31;;;;;;;31.90;22.43;;;0.60;99.90;;;;;;5001071;28;20194;-67
2022/01/13 06:41:57;;;;;;;33.93;23.20;;;0.60;99.90;;;;;;5013515;28;20221;-67
2022/01/13 06:44:22;;;;;;;31.13;22.63;;;0.60;99.90;;;;;;5005679;28;20188;-67
2022/01/13 06:46:48;;;;;;;32.23;23.53;;;0.70;99.90;;;;;;5000419;28;20205;-67
2022/01/13 06:49:13;;;;;;;32.50;24.13;;;0.60;99.90;;;;;;5007295;28;20194;-67
2022/01/13 06:51:39;;;;;;;35.00;23.23;;;0.70;99.90;;;;;;4998801;28;20210;-67
2022/01/13 06:54:04;;;;;;;27.73;22.20;;;0.70;99.90;;;;;;5006417;28;20207;-67
2022/01/13 06:56:30;;;;;;;35.37;24.47;;;0.70;99.90;;;;;;5002129;28;20187;-67
2022/01/13 06:58:56;;;;;;;31.60;23.57;;;0.70;99.90;;;;;;4996553;28;20171;-66
2022/01/13 07:01:23;;;;;;;31.07;22.20;;;0.70;99.90;;;;;;5008069;28;20274;-67
2022/01/13 07:03:49;;;;;;;31.73;23.03;;;0.70;99.90;;;;;;5004482;28;20182;-67
2022/01/13 07:06:15;;;;;;;34.47;25.77;;;0.70;99.90;;;;;;4998176;28;20446;-67
2022/01/13 07:08:40;;;;;;;32.07;22.97;;;0.70;99.90;;;;;;5008027;28;20434;-66
2022/01/13 07:11:06;;;;;;;29.90;23.30;;;0.70;99.90;;;;;;5010189;28;20187;-67
2022/01/13 07:13:32;;;;;;;40.93;23.60;;;0.40;99.90;;;;;;5000442;28;20202;-66
2022/01/13 07:16:00;;;;;;;36.00;24.10;;;0.30;99.90;;;;;;4997386;28;20176;-67
2022/01/13 07:18:27;;;;;;;35.37;24.00;;;0.20;99.90;;;;;;5007829;28;20435;-67
2022/01/13 07:20:52;;;;;;;37.93;25.57;;;0.10;99.90;;;;;;5002587;28;20442;-66
2022/01/13 07:23:18;;;;;;;30.50;23.00;;;0.10;99.90;;;;;;5002214;28;20442;-67
2022/01/13 07:25:43;;;;;;;35.63;25.67;;;0.10;99.90;;;;;;4999830;28;20205;-67
2022/01/13 07:28:10;;;;;;;34.00;25.40;;;0.20;99.90;;;;;;5009236;28;20218;-67
2022/01/13 07:30:36;;;;;;;38.87;23.90;;;0.20;99.90;;;;;;5002417;28;20175;-67
2022/01/13 07:33:02;;;;;;;33.00;24.57;;;0.20;99.90;;;;;;4999611;28;20543;-67
2022/01/13 07:35:27;;;;;;;39.80;26.00;;;0.20;99.90;;;;;;4996872;28;20602;-67
2022/01/13 07:37:53;;;;;;;33.90;23.90;;;0.20;99.90;;;;;;4998028;28;20438;-67
2022/01/13 07:40:19;;;;;;;31.30;23.67;;;0.20;99.90;;;;;;4996566;28;20180;-67
2022/01/13 07:42:46;;;;;;;28.70;22.57;;;0.20;99.90;;;;;;4996048;28;20843;-67
2022/01/13 07:45:13;;;;;;;35.17;24.10;;;0.20;99.90;;;;;;5004495;28;20556;-67
2022/01/13 07:47:39;;;;;;;27.30;22.13;;;0.10;99.90;;;;;;5003300;28;20508;-67
2022/01/13 07:50:06;;;;;;;35.97;23.80;;;0.00;99.90;;;;;;4995172;28;20845;-67
2022/01/13 07:52:32;;;;;;;30.80;23.00;;;-0.10;99.90;;;;;;5010487;28;20664;-67
2022/01/13 07:54:57;;;;;;;36.90;25.40;;;-0.30;99.90;;;;;;5012609;28;20437;-67
2022/01/13 07:57:23;;;;;;;35.13;23.73;;;-0.40;99.90;;;;;;5002712;28;20183;-67
2022/01/13 07:59:49;;;;;;;37.50;25.60;;;-0.20;99.90;;;;;;5008526;28;20807;-67
2022/01/13 08:02:14;;;;;;;34.57;24.93;;;0.30;99.90;;;;;;4999247;28;20241;-66
2022/01/13 08:04:40;;;;;;;29.50;22.27;;;1.30;99.90;;;;;;4973642;28;20223;-67
2022/01/13 08:07:05;;;;;;;34.27;24.10;;;2.10;99.90;;;;;;4991432;28;20199;-67
2022/01/13 08:09:31;;;;;;;30.60;22.70;;;2.90;99.90;;;;;;5005952;28;20249;-67
2022/01/13 08:11:56;;;;;;;30.77;25.03;;;3.40;99.90;;;;;;5003800;28;20210;-67
2022/01/13 08:14:22;;;;;;;37.83;25.13;;;3.70;99.90;;;;;;4996061;28;20210;-68
2022/01/13 08:16:49;;;;;;;29.97;21.30;;;4.00;99.90;;;;;;5000987;28;20584;-68
2022/01/13 08:21:58;;;;;;;27.13;22.53;;;5.20;99.90;;;;;;5000174;28;20456;-65
2022/01/13 08:24:24;;;;;;;27.93;21.67;;;6.00;99.90;;;;;;5009024;28;20813;-68
2022/01/13 08:26:50;;;;;;;26.37;22.87;;;6.80;99.90;;;;;;5008059;28;20186;-68
2022/01/13 08:29:15;;;;;;;25.67;22.87;;;7.40;99.90;;;;;;4997110;28;20221;-65
2022/01/13 08:31:41;;;;;;;28.60;24.20;;;8.00;99.90;;;;;;4997554;28;20213;-65
2022/01/13 08:34:06;;;;;;;25.27;22.40;;;8.40;99.90;;;;;;5000363;28;20203;-66
2022/01/13 08:36:32;;;;;;;26.10;22.90;;;8.60;99.90;;;;;;5001758;28;20179;-65
2022/01/13 08:38:57;;;;;;;26.07;23.07;;;9.20;99.90;;;;;;4995258;28;20281;-65
2022/01/13 08:41:23;;;;;;;29.40;23.43;;;9.10;99.80;;;;;;4992061;28;20269;-65
2022/01/13 08:43:51;;;;;;;26.83;23.87;;;9.60;99.70;;;;;;4990019;28;20538;-65
2022/01/13 08:46:17;;;;;;;25.67;22.50;;;10.50;97.40;;;;;;5002281;28;20194;-66
2022/01/13 08:48:43;;;;;;;25.50;22.90;;;11.00;95.70;;;;;;5007219;28;20818;-66
2022/01/13 08:51:08;;;;;;;26.03;23.60;;;11.50;93.90;;;;;;4991044;28;21181;-66
2022/01/13 08:53:34;;;;;;;27.90;24.87;;;11.70;92.60;;;;;;4996126;28;20253;-65
2022/01/13 08:56:00;;;;;;;25.73;23.43;;;12.20;91.50;;;;;;5004360;28;20186;-65
2022/01/13 08:58:26;;;;;;;27.03;24.33;;;12.60;90.00;;;;;;5003560;28;20171;-66
2022/01/13 09:00:53;;;;;;;28.50;25.80;;;13.20;86.40;;;;;;5000255;28;20436;-66
2022/01/13 09:03:18;;;;;;;28.03;25.20;;;13.60;82.90;;;;;;4996008;28;20599;-66
2022/01/13 09:05:44;;;;;;;27.63;24.83;;;13.40;80.40;;;;;;5001606;28;20536;-66
2022/01/13 09:08:11;;;;;;;29.10;25.60;;;13.00;81.90;;;;;;5010249;28;20258;-65
2022/01/13 09:10:40;;;;;;;25.70;23.20;;;13.10;82.00;;;;;;4996484;28;20238;-66
2022/01/13 09:13:07;;;;;;;26.87;24.17;;;13.70;79.30;;;;;;4997045;28;20613;-66
2022/01/13 09:15:39;;;;;;;26.00;23.50;;;14.50;76.40;;;;;;4998758;28;20782;-65
2022/01/13 09:18:16;;;;;;;26.30;23.70;;;15.00;72.30;;;;;;5003583;28;20434;-65
2022/01/13 09:20:43;;;;;;;28.30;25.43;;;15.50;69.80;;;;;;5006543;28;20459;-65
2022/01/13 09:23:09;;;;;;;30.30;27.10;;;15.90;67.90;;;;;;5001638;28;20835;-66
2022/01/13 09:25:35;;;;;;;26.17;23.77;;;14.60;66.50;;;;;;5008298;28;20904;-66
2022/01/13 09:28:04;;;;;;;27.53;24.93;;;15.20;67.60;;;;;;5003100;28;20627;-66
2022/01/13 09:30:29;;;;;;;27.37;24.47;;;14.50;67.00;;;;;;4994427;28;20187;-66
2022/01/13 09:32:55;;;;;;;26.07;23.67;;;15.50;66.20;;;;;;4994731;28;20521;-65
2022/01/13 09:35:20;;;;;;;28.73;25.93;;;15.30;64.60;;;;;;4996283;28;20732;-65
2022/01/13 09:37:46;;;;;;;26.93;24.37;;;15.00;64.60;;;;;;4993165;28;20176;-66
2022/01/13 09:40:12;;;;;;;28.67;25.83;;;15.50;63.90;;;;;;4998163;28;20668;-65
2022/01/13 09:42:40;;;;;;;25.40;22.90;;;14.40;63.10;;;;;;5004354;28;20720;-65
2022/01/13 09:45:07;;;;;;;25.40;22.90;;;11.70;68.10;;;;;;5000836;28;20556;-65
2022/01/13 09:47:35;;;;;;;27.40;24.70;;;11.90;72.40;;;;;;4997045;28;20454;-65
2022/01/13 09:50:01;;;;;;;25.03;22.13;;;11.60;69.70;;;;;;5002089;28;20451;-65
2022/01/13 09:52:28;;;;;;;24.37;21.47;;;10.30;73.80;;;;;;4993101;28;20458;-65
2022/01/13 09:54:55;;;;;;;19.30;16.50;;;9.20;79.90;;;;;;5005282;28;20458;-66
2022/01/13 09:57:21;;;;;;;22.83;17.43;;;10.10;80.40;;;;;;4996578;28;20435;-66
2022/01/13 09:59:46;;;;;;;26.00;17.93;;;10.70;79.70;;;;;;4998690;28;20936;-66
2022/01/13 10:02:12;;;;;;;19.77;17.80;;;11.60;76.90;;;;;;5002172;28;20235;-65
2022/01/13 10:04:46;;;;;;;20.90;17.83;;;11.30;77.20;;;;;;5006636;28;20182;-65
2022/01/13 10:07:17;;;;;;;23.87;21.40;;;10.60;77.70;;;;;;4998118;28;20182;-66
2022/01/13 10:09:54;;;;;;;21.53;19.17;;;12.00;77.20;;;;;;5002812;28;20442;-66
2022/01/13 10:12:36;;;;;;;23.30;20.80;;;13.80;71.50;;;;;;5003502;28;20458;-66
2022/01/13 10:17:44;;;;;;;24.17;21.90;;;16.80;62.60;;;;;;5002650;28;20853;-65
2022/01/13 10:20:11;;;;;;;22.63;20.63;;;14.60;64.40;;;;;;5006638;28;20793;-65
2022/01/13 10:22:37;;;;;;;25.77;23.10;;;16.50;61.60;;;;;;5009424;28;20508;-66
2022/01/13 10:25:03;;;;;;;22.10;20.00;;;16.10;60.20;;;;;;5013315;28;20822;-65
2022/01/13 10:27:31;;;;;;;21.90;19.03;;;16.60;60.10;;;;;;5006045;28;20180;-66
2022/01/13 10:29:58;;;;;;;19.60;17.63;;;17.90;57.80;;;;;;5012960;28;20267;-65
2022/01/13 10:32:26;;;;;;;20.70;18.63;;;18.80;55.60;;;;;;5004126;28;20457;-66
2022/01/13 10:34:59;;;;;;;18.87;17.03;;;19.40;53.60;;;;;;5007290;28;20480;-65
2022/01/13 10:37:39;;;;;;;18.07;16.23;;;19.70;52.20;;;;;;4998235;28;20501;-65
2022/01/13 10:40:18;;;;;;;20.13;18.33;;;19.70;51.10;;;;;;5011948;28;20441;-66
2022/01/13 10:45:26;;;;;;;21.53;19.47;;;18.70;51.60;;;;;;5000461;28;20956;-66
2022/01/13 10:48:16;;;;;;;20.60;18.63;;;20.00;49.80;;;;;;5002767;28;20515;-66
2022/01/13 10:50:46;;;;;;;19.90;18.10;;;21.10;48.40;;;;;;4996972;28;20467;-66
2022/01/13 10:53:38;;;;;;;20.80;18.80;;;22.00;46.00;;;;;;5004261;28;20830;-66
2022/01/13 10:56:10;;;;;;;19.60;17.80;;;22.10;44.90;;;;;;5003793;28;20437;-66
2022/01/13 10:58:39;;;;;;;17.83;16.33;;;22.40;44.40;;;;;;5010433;28;20438;-66
2022/01/13 11:01:05;;;;;;;18.87;17.37;;;22.20;44.60;;;;;;5001045;28;20612;-66
2022/01/13 11:03:34;;;;;;;18.40;16.70;;;22.80;43.50;;;;;;5001098;28;20438;-66
2022/01/13 11:06:03;;;;;;;19.10;17.40;;;22.80;43.10;;;;;;5001730;28;20437;-66
2022/01/13 11:08:38;;;;;;;19.40;17.70;;;23.00;42.00;;;;;;5007574;28;20790;-66
2022/01/13 11:11:04;;;;;;;20.17;18.33;;;21.80;42.70;;;;;;4996503;28;20995;-66
2022/01/13 11:13:36;;;;;;;18.53;16.90;;;22.70;42.50;;;;;;5001755;28;20501;-66
2022/01/13 11:16:02;;;;;;;19.90;18.00;;;23.30;41.10;;;;;;4995525;28;20180;-66
2022/01/13 11:18:30;;;;;;;19.07;17.50;;;22.70;41.00;;;;;;5004203;28;20434;-66
2022/01/13 11:20:57;;;;;;;19.00;17.40;;;22.70;41.30;;;;;;5005257;28;20959;-68
2022/01/13 11:23:24;;;;;;;20.83;18.87;;;22.90;40.60;;;;;;5005891;28;20951;-68
2022/01/13 11:25:52;;;;;;;19.60;17.90;;;23.70;40.10;;;;;;5006024;28;20439;-67
2022/01/13 11:28:18;;;;;;;20.87;18.97;;;24.70;39.00;;;;;;5011352;28;20437;-67
2022/01/13 11:30:44;;;;;;;19.47;17.80;;;24.80;38.30;;;;;;5001330;28;20461;-67
2022/01/13 11:33:09;;;;;;;19.53;17.73;;;24.90;37.70;;;;;;4993916;28;20462;-67
2022/01/13 11:35:39;;;;;;;20.83;18.83;;;25.60;37.10;;;;;;4995967;28;20182;-68
2022/01/13 11:38:06;;;;;;;20.00;18.40;;;25.20;36.40;;;;;;4993695;28;20226;-65
2022/01/13 11:40:36;;;;;;;22.10;20.10;;;26.00;36.10;;;;;;5007049;28;20517;-66
2022/01/13 11:43:04;;;;;;;20.50;18.60;;;26.20;35.40;;;;;;5003113;28;20489;-65
2022/01/13 11:45:35;;;;;;;20.27;18.50;;;26.00;35.40;;;;;;5002415;28;20442;-65
2022/01/13 11:48:14;;;;;;;19.97;18.30;;;26.00;35.20;;;;;;5002871;28;20508;-66
2022/01/13 11:50:47;;;;;;;21.57;19.63;;;25.60;35.70;;;;;;4993856;28;20461;-65
2022/01/13 11:53:23;;;;;;;20.90;19.10;;;26.50;35.10;;;;;;5002395;28;20469;-66
2022/01/13 11:55:57;;;;;;;20.70;18.80;;;27.30;34.30;;;;;;4998936;28;20437;-65
2022/01/13 11:58:28;;;;;;;27.03;22.87;;;27.80;33.60;;;;;;5006640;28;20490;-65
2022/01/13 12:00:54;;;;;;;20.33;18.60;;;28.20;33.10;;;;;;4998315;28;20449;-65
2022/01/13 12:03:25;;;;;;;21.70;19.63;;;24.70;34.80;;;;;;5008301;28;20885;-65
2022/01/13 12:05:51;;;;;;;26.43;20.37;;;23.40;36.00;;;;;;5001578;28;20812;-65
2022/01/13 12:08:39;;;;;;;22.60;20.63;;;24.10;36.30;;;;;;4998804;28;20534;-65
2022/01/13 12:11:05;;;;;;;22.33;19.87;;;25.10;35.00;;;;;;5002691;28;20520;-65
2022/01/13 12:13:33;;;;;;;21.00;18.90;;;24.80;34.90;;;;;;5008942;28;20461;-65
2022/01/13 12:15:59;;;;;;;19.53;17.73;;;25.40;34.80;;;;;;4993413;28;20533;-65
2022/01/13 12:18:45;;;;;;;21.37;19.57;;;26.80;34.10;;;;;;4993572;28;20521;-65
2022/01/13 12:21:24;;;;;;;21.83;19.50;;;27.20;33.30;;;;;;4995116;28;20575;-65
2022/01/13 12:23:50;;;;;;;20.57;18.63;;;27.40;32.90;;;;;;4994438;28;20456;-65
2022/01/13 12:26:33;;;;;;;25.70;23.27;;;25.10;32.30;;;;;;4992231;28;20446;-65
2022/01/13 12:29:12;;;;;;;20.90;19.00;;;24.90;34.40;;;;;;4992251;28;20194;-65
2022/01/13 12:31:51;;;;;;;19.80;18.00;;;25.40;33.90;;;;;;4990678;28;20480;-66
2022/01/13 12:34:43;;;;;;;20.97;18.70;;;26.20;33.80;;;;;;4997852;28;20468;-65
2022/01/13 12:37:11;;;;;;;22.30;20.23;;;26.70;33.10;;;;;;5006335;28;20441;-65
2022/01/13 12:39:46;;;;;;;20.13;18.30;;;26.40;32.90;;;;;;4989694;28;20465;-65
2022/01/13 12:42:17;;;;;;;20.73;18.87;;;26.30;33.30;;;;;;4991586;28;20500;-65
2022/01/13 12:47:28;;;;;;;20.70;18.67;;;25.50;34.30;;;;;;5003841;28;21301;-66
2022/01/13 12:49:54;;;;;;;22.10;20.03;;;24.60;33.70;;;;;;5006850;28;20433;-65
2022/01/13 12:52:21;;;;;;;19.87;18.07;;;22.10;36.30;;;;;;5008095;28;20672;-65
2022/01/13 12:54:47;;;;;;;21.20;18.77;;;24.40;35.40;;;;;;4991730;28;20219;-65
2022/01/13 12:57:14;;;;;;;18.50;16.90;;;25.40;33.90;;;;;;5001544;28;20945;-65